Time;durP1;ratioP1;P1;durP2;ratioP2;P2;SDS_P1;SDS_P2;PMS_P1;PMS_P2;Temp;Humidity;BMP_temperature;BMP_pressure;BME280_temperature;BME280_humidity;BME280_pressure;Samples;Min_cycle;Max_cycle;Signal;HPM_P1;HPM_P2
2023/07/06 00:01:39;;;;;;;3.08;1.90;;;16.90;99.90;;;;;;4177504;28;20454;-60
2023/07/06 00:03:39;;;;;;;3.60;1.88;;;16.80;99.90;;;;;;4168445;28;20037;-60
2023/07/06 00:05:47;;;;;;;3.58;2.15;;;16.80;99.90;;;;;;4191043;28;20025;-60
2023/07/06 00:07:47;;;;;;;4.50;2.22;;;16.80;99.90;;;;;;4189889;28;20120;-59
2023/07/06 00:09:49;;;;;;;6.97;2.45;;;16.70;99.90;;;;;;4181968;28;20133;-60
2023/07/06 00:11:50;;;;;;;2.90;1.88;;;16.80;99.90;;;;;;4185274;28;20139;-60
2023/07/06 00:13:51;;;;;;;4.90;2.45;;;16.70;99.90;;;;;;4181450;28;20098;-60
2023/07/06 00:15:52;;;;;;;2.25;1.85;;;16.70;99.90;;;;;;4188733;28;20038;-60
2023/07/06 00:17:52;;;;;;;2.80;1.58;;;16.60;99.90;;;;;;4188278;28;20051;-62
2023/07/06 00:19:53;;;;;;;4.85;2.35;;;16.60;99.90;;;;;;4175774;28;20040;-61
2023/07/06 00:21:54;;;;;;;4.30;2.30;;;16.60;99.90;;;;;;4186427;28;20063;-59
2023/07/06 00:23:55;;;;;;;5.32;1.98;;;16.50;99.90;;;;;;4186448;28;20481;-60
2023/07/06 00:25:55;;;;;;;4.50;2.45;;;16.50;99.90;;;;;;4178267;28;20095;-60
2023/07/06 00:27:59;;;;;;;6.85;2.50;;;16.50;99.90;;;;;;4182093;28;20044;-60
2023/07/06 00:30:15;;;;;;;4.50;2.55;;;16.40;99.90;;;;;;4185346;28;20404;-60
2023/07/06 00:32:26;;;;;;;4.18;2.00;;;16.30;99.90;;;;;;4187652;28;20079;-61
2023/07/06 00:34:26;;;;;;;4.75;2.25;;;16.30;99.90;;;;;;4179556;28;20053;-61
2023/07/06 00:36:28;;;;;;;2.38;1.85;;;16.30;99.90;;;;;;4189962;28;20028;-60
2023/07/06 00:38:29;;;;;;;4.68;2.65;;;16.30;99.90;;;;;;4165577;28;20049;-60
2023/07/06 00:40:31;;;;;;;5.32;2.58;;;16.30;99.90;;;;;;4183172;28;20045;-60
2023/07/06 00:42:31;;;;;;;4.88;2.80;;;16.30;99.90;;;;;;4184706;28;20075;-60
2023/07/06 00:44:57;;;;;;;3.65;2.15;;;16.30;99.90;;;;;;4180911;28;20422;-60
2023/07/06 00:46:58;;;;;;;2.63;2.28;;;16.20;99.90;;;;;;4182062;28;20029;-60
2023/07/06 00:49:01;;;;;;;4.03;2.30;;;16.30;99.90;;;;;;4184389;28;20033;-60
2023/07/06 00:51:09;;;;;;;3.25;2.20;;;16.30;99.90;;;;;;4187527;28;20035;-60
2023/07/06 00:53:14;;;;;;;4.07;2.47;;;16.20;99.90;;;;;;4186343;28;20134;-60
2023/07/06 00:55:18;;;;;;;3.70;2.42;;;16.20;99.90;;;;;;4182119;28;20037;-60
2023/07/06 00:57:21;;;;;;;5.60;2.50;;;16.20;99.90;;;;;;4181072;28;20039;-60
2023/07/06 00:59:26;;;;;;;2.90;2.22;;;16.20;99.90;;;;;;4183991;28;20108;-60
2023/07/06 01:01:27;;;;;;;3.63;1.98;;;16.20;99.90;;;;;;4189750;28;20025;-60
2023/07/06 01:03:27;;;;;;;5.32;2.50;;;16.20;99.90;;;;;;4176621;28;20048;-61
2023/07/06 01:05:30;;;;;;;2.95;2.20;;;16.10;99.90;;;;;;4180454;28;20056;-60
2023/07/06 01:07:32;;;;;;;6.47;2.85;;;16.20;99.90;;;;;;4180221;28;20055;-60
2023/07/06 01:09:33;;;;;;;2.88;2.15;;;16.10;99.90;;;;;;4177490;28;20059;-60
2023/07/06 01:11:37;;;;;;;3.47;2.40;;;16.10;99.90;;;;;;4181914;28;20428;-60
2023/07/06 01:13:38;;;;;;;3.85;2.55;;;16.10;99.90;;;;;;4176281;28;20056;-60
2023/07/06 01:16:20;;;;;;;2.88;1.90;;;16.10;99.90;;;;;;4176949;28;20037;-60
2023/07/06 01:18:46;;;;;;;3.97;2.38;;;16.00;99.90;;;;;;4150719;28;20057;-60
2023/07/06 01:20:54;;;;;;;5.65;2.30;;;16.00;99.90;;;;;;4181346;28;20075;-60
2023/07/06 01:23:13;;;;;;;5.47;2.67;;;16.00;99.90;;;;;;4182640;28;20071;-60
2023/07/06 01:25:25;;;;;;;6.78;2.60;;;16.00;99.90;;;;;;4179066;28;20064;-60
2023/07/06 01:28:07;;;;;;;2.80;2.30;;;16.00;99.90;;;;;;4179195;28;20029;-61
2023/07/06 01:30:36;;;;;;;4.15;2.63;;;16.00;99.90;;;;;;4177550;28;20089;-61
2023/07/06 01:32:41;;;;;;;4.40;2.63;;;16.00;99.90;;;;;;4182888;28;20437;-60
2023/07/06 01:34:57;;;;;;;11.43;3.70;;;16.00;99.90;;;;;;4182716;28;20159;-60
2023/07/06 01:37:02;;;;;;;6.47;3.10;;;15.90;99.90;;;;;;4180268;28;20049;-60
2023/07/06 01:39:17;;;;;;;5.20;2.90;;;16.00;99.90;;;;;;4163282;28;20064;-60
2023/07/06 01:41:26;;;;;;;4.38;2.90;;;15.90;99.90;;;;;;4174940;28;20071;-61
2023/07/06 01:43:28;;;;;;;3.47;2.63;;;15.90;99.90;;;;;;4181550;28;20108;-60
2023/07/06 01:45:29;;;;;;;5.63;3.10;;;15.80;99.90;;;;;;4178850;28;20060;-60
2023/07/06 01:47:32;;;;;;;5.95;3.30;;;15.80;99.90;;;;;;4182975;28;20036;-60
2023/07/06 01:49:33;;;;;;;6.10;2.95;;;15.80;99.90;;;;;;4182076;28;20051;-60
2023/07/06 01:51:48;;;;;;;5.55;3.08;;;15.80;99.90;;;;;;4181932;28;20041;-60
2023/07/06 01:53:52;;;;;;;3.97;2.85;;;15.70;99.90;;;;;;4179039;28;20036;-61
2023/07/06 01:56:01;;;;;;;5.82;2.63;;;15.70;99.90;;;;;;4184411;28;20083;-61
2023/07/06 01:58:06;;;;;;;4.65;2.80;;;15.70;99.90;;;;;;4182401;28;20048;-60
2023/07/06 02:00:12;;;;;;;7.22;2.65;;;15.70;99.90;;;;;;4185387;28;20403;-61
2023/07/06 02:02:14;;;;;;;4.80;2.60;;;15.70;99.90;;;;;;4177206;28;20032;-60
2023/07/06 02:04:20;;;;;;;6.25;2.70;;;15.60;99.90;;;;;;4175587;28;20037;-60
2023/07/06 02:06:21;;;;;;;4.32;2.90;;;15.60;99.90;;;;;;4180913;28;20119;-60
2023/07/06 02:08:23;;;;;;;4.10;2.67;;;15.60;99.90;;;;;;4176404;28;20033;-60
2023/07/06 02:10:24;;;;;;;3.80;2.58;;;15.60;99.90;;;;;;4187006;28;20094;-60
2023/07/06 02:12:24;;;;;;;5.10;2.70;;;15.60;99.90;;;;;;4187382;28;20371;-60
2023/07/06 02:14:25;;;;;;;4.30;3.08;;;15.60;99.90;;;;;;4174493;28;20037;-60
2023/07/06 02:16:26;;;;;;;4.50;2.70;;;15.50;99.90;;;;;;4178628;28;20473;-61
2023/07/06 02:18:27;;;;;;;4.68;2.90;;;15.50;99.90;;;;;;4180074;28;20052;-60
2023/07/06 02:20:29;;;;;;;5.35;3.10;;;15.50;99.90;;;;;;4184258;28;20024;-60
2023/07/06 02:22:32;;;;;;;4.32;2.28;;;15.50;99.90;;;;;;4181508;28;20039;-60
2023/07/06 02:24:33;;;;;;;4.82;2.67;;;15.50;99.90;;;;;;4175610;28;20549;-60
2023/07/06 02:26:33;;;;;;;5.20;2.65;;;15.40;99.90;;;;;;4180920;28;20053;-60
2023/07/06 02:28:35;;;;;;;5.65;2.60;;;15.40;99.90;;;;;;4177680;28;20024;-60
2023/07/06 02:30:37;;;;;;;5.80;2.90;;;15.40;99.90;;;;;;4167901;28;20040;-60
2023/07/06 02:32:39;;;;;;;6.13;2.85;;;15.30;99.90;;;;;;4180514;28;20047;-60
2023/07/06 02:34:40;;;;;;;3.63;2.25;;;15.40;99.90;;;;;;4176211;28;20091;-60
2023/07/06 02:36:41;;;;;;;3.70;2.95;;;15.40;99.90;;;;;;4186599;28;20476;-59
2023/07/06 02:38:42;;;;;;;6.57;2.55;;;15.30;99.90;;;;;;4177166;28;20032;-60
2023/07/06 02:40:42;;;;;;;11.68;3.00;;;15.40;99.90;;;;;;4180823;28;20518;-60
2023/07/06 02:42:43;;;;;;;4.43;2.35;;;15.30;99.90;;;;;;4183272;28;20487;-60
2023/07/06 02:44:43;;;;;;;3.97;2.70;;;15.30;99.90;;;;;;4178936;28;20395;-60
2023/07/06 02:46:44;;;;;;;3.95;2.45;;;15.30;99.90;;;;;;4185631;28;20082;-60
2023/07/06 02:48:45;;;;;;;6.40;2.90;;;15.30;99.90;;;;;;4180201;28;20060;-60
2023/07/06 02:50:50;;;;;;;6.93;2.78;;;15.30;99.90;;;;;;4181815;28;20036;-59
2023/07/06 02:52:50;;;;;;;4.88;2.55;;;15.30;99.90;;;;;;4186306;28;20033;-60
2023/07/06 02:54:53;;;;;;;5.78;2.72;;;15.30;99.90;;;;;;4179438;28;20593;-60
2023/07/06 02:56:56;;;;;;;8.98;2.83;;;15.20;99.90;;;;;;4181457;28;20061;-60
2023/07/06 02:58:56;;;;;;;11.60;3.38;;;15.20;99.90;;;;;;4159062;28;20316;-61
2023/07/06 03:00:57;;;;;;;4.22;2.95;;;15.10;99.90;;;;;;4181151;28;20403;-60
2023/07/06 03:02:58;;;;;;;3.83;2.55;;;15.10;99.90;;;;;;4169616;28;20186;-60
2023/07/06 03:04:59;;;;;;;4.60;2.75;;;15.10;99.90;;;;;;4181217;28;20039;-60
2023/07/06 03:06:59;;;;;;;7.25;3.13;;;15.10;99.90;;;;;;4185031;28;20395;-60
2023/07/06 03:09:00;;;;;;;4.82;2.42;;;15.10;99.90;;;;;;4175523;28;20434;-60
2023/07/06 03:11:01;;;;;;;7.93;2.63;;;15.10;99.90;;;;;;4180187;28;20041;-60
2023/07/06 03:13:02;;;;;;;4.82;3.00;;;15.10;99.90;;;;;;4179921;28;20033;-60
2023/07/06 03:15:10;;;;;;;6.25;2.42;;;15.10;99.90;;;;;;4180507;28;20033;-62
2023/07/06 03:17:11;;;;;;;4.43;2.47;;;15.10;99.90;;;;;;4183619;28;20677;-59
2023/07/06 03:19:14;;;;;;;3.50;2.45;;;15.10;99.90;;;;;;4173347;28;20124;-60
2023/07/06 03:21:15;;;;;;;3.75;2.65;;;15.00;99.90;;;;;;4155865;28;20034;-60
2023/07/06 03:23:17;;;;;;;5.45;3.00;;;15.00;99.90;;;;;;4178812;28;20119;-60
2023/07/06 03:25:19;;;;;;;;;;;15.00;99.90;;;;;;4182482;28;20032;-61
2023/07/06 03:27:20;;;;;;;6.93;2.65;;;15.00;99.90;;;;;;4185877;28;19944;-60
2023/07/06 03:29:21;;;;;;;4.20;2.60;;;15.00;99.90;;;;;;4177066;28;20044;-60
2023/07/06 03:31:22;;;;;;;4.53;2.40;;;15.00;99.90;;;;;;4180252;28;20347;-60
2023/07/06 03:33:24;;;;;;;5.50;2.40;;;15.00;99.90;;;;;;4180128;28;20480;-60
2023/07/06 03:35:25;;;;;;;3.58;2.20;;;15.00;99.90;;;;;;4188810;28;20028;-60
2023/07/06 03:37:26;;;;;;;4.75;2.42;;;15.00;99.90;;;;;;4182073;28;20403;-63
2023/07/06 03:39:27;;;;;;;2.65;2.08;;;15.00;99.90;;;;;;4177970;28;20034;-61
2023/07/06 03:41:29;;;;;;;4.68;2.35;;;15.00;99.90;;;;;;4183068;28;20116;-60
2023/07/06 03:43:30;;;;;;;3.53;2.40;;;15.00;99.90;;;;;;4180936;28;20041;-60
2023/07/06 03:45:31;;;;;;;6.38;3.00;;;15.00;99.90;;;;;;4176476;28;20508;-60
2023/07/06 03:47:33;;;;;;;4.18;2.30;;;15.00;99.90;;;;;;4177612;28;20040;-60
2023/07/06 03:49:35;;;;;;;4.97;2.55;;;15.00;99.90;;;;;;4155007;28;20041;-60
2023/07/06 03:51:38;;;;;;;5.57;2.90;;;15.00;99.90;;;;;;4184928;28;20053;-60
2023/07/06 03:53:38;;;;;;;5.97;2.30;;;15.00;99.90;;;;;;4182938;28;20044;-60
2023/07/06 03:55:40;;;;;;;2.80;2.30;;;15.10;99.90;;;;;;4182813;28;20029;-60
2023/07/06 03:57:43;;;;;;;4.32;2.30;;;15.10;99.90;;;;;;4184074;28;20472;-60
2023/07/06 03:59:43;;;;;;;3.85;2.00;;;15.00;99.90;;;;;;4178491;28;20550;-60
2023/07/06 04:01:44;;;;;;;6.88;2.60;;;15.10;99.90;;;;;;4186586;28;20041;-60
2023/07/06 04:03:45;;;;;;;4.45;2.00;;;15.10;99.90;;;;;;4179258;28;20036;-60
2023/07/06 04:05:47;;;;;;;4.22;2.03;;;15.10;99.90;;;;;;4179163;28;20537;-60
2023/07/06 04:07:52;;;;;;;4.20;2.05;;;15.00;99.90;;;;;;4182480;28;20584;-60
2023/07/06 04:09:53;;;;;;;3.67;2.00;;;15.00;99.90;;;;;;4176163;28;20028;-60
2023/07/06 04:11:55;;;;;;;3.17;1.88;;;15.00;99.90;;;;;;4180395;28;20032;-60
2023/07/06 04:13:57;;;;;;;3.45;1.90;;;15.00;99.90;;;;;;4180954;28;20120;-60
2023/07/06 04:15:58;;;;;;;4.57;1.90;;;15.00;99.90;;;;;;4176367;28;20041;-60
2023/07/06 04:17:58;;;;;;;3.70;1.92;;;15.00;99.90;;;;;;4181360;28;20040;-60
2023/07/06 04:20:00;;;;;;;5.72;2.28;;;15.00;99.90;;;;;;4178108;28;20476;-60
2023/07/06 04:22:02;;;;;;;5.05;2.25;;;15.00;99.90;;;;;;4185172;28;20036;-60
2023/07/06 04:24:04;;;;;;;3.40;2.05;;;15.00;99.90;;;;;;4160829;28;20036;-60
2023/07/06 04:26:05;;;;;;;4.95;2.60;;;15.00;99.90;;;;;;4185021;28;20028;-60
2023/07/06 04:28:10;;;;;;;4.95;2.10;;;14.90;99.90;;;;;;4187495;28;20041;-60
2023/07/06 04:30:11;;;;;;;3.97;2.28;;;14.90;99.90;;;;;;4171915;28;20441;-61
2023/07/06 04:32:12;;;;;;;9.70;2.50;;;14.80;99.90;;;;;;4185980;28;20115;-60
2023/07/06 04:34:14;;;;;;;8.13;2.40;;;14.80;99.90;;;;;;4174821;28;20044;-60
2023/07/06 04:36:17;;;;;;;9.98;2.85;;;14.80;99.90;;;;;;4158594;28;20025;-60
2023/07/06 04:38:20;;;;;;;6.20;2.20;;;14.80;99.90;;;;;;4180750;28;20098;-60
2023/07/06 04:40:21;;;;;;;8.07;2.70;;;14.80;99.90;;;;;;4169391;28;20059;-60
2023/07/06 04:42:27;;;;;;;5.45;2.40;;;14.80;99.90;;;;;;4172879;28;20087;-60
2023/07/06 04:44:28;;;;;;;3.78;2.03;;;14.80;99.90;;;;;;4177043;28;20410;-61
2023/07/06 04:46:28;;;;;;;3.53;2.25;;;14.80;99.90;;;;;;4175751;28;20033;-60
2023/07/06 04:48:30;;;;;;;5.85;2.35;;;14.80;99.90;;;;;;4178050;28;20032;-61
2023/07/06 04:50:31;;;;;;;3.38;1.95;;;14.90;99.90;;;;;;4180627;28;20455;-60
2023/07/06 04:52:33;;;;;;;6.93;2.55;;;14.90;99.90;;;;;;4185690;28;20320;-59
2023/07/06 04:54:33;;;;;;;4.60;2.05;;;14.80;99.90;;;;;;4184011;28;20067;-60
2023/07/06 04:56:37;;;;;;;6.60;2.50;;;14.90;99.90;;;;;;4190776;28;20032;-60
2023/07/06 04:58:38;;;;;;;9.30;2.38;;;14.90;99.90;;;;;;4182461;28;20411;-60
2023/07/06 05:00:39;;;;;;;4.80;2.40;;;14.90;99.90;;;;;;4186522;28;20140;-60
2023/07/06 05:02:42;;;;;;;5.93;2.15;;;14.90;99.90;;;;;;4183509;28;20033;-60
2023/07/06 05:04:43;;;;;;;5.28;1.98;;;15.00;99.90;;;;;;4179221;28;20130;-60
2023/07/06 05:06:45;;;;;;;6.85;2.63;;;15.00;99.90;;;;;;4183638;28;20033;-60
2023/07/06 05:08:47;;;;;;;6.28;2.45;;;15.00;99.90;;;;;;4184279;28;20032;-60
2023/07/06 05:10:51;;;;;;;9.40;2.30;;;15.00;99.90;;;;;;4161483;28;20037;-60
2023/07/06 05:12:53;;;;;;;5.07;2.13;;;15.10;99.90;;;;;;4189419;28;20044;-60
2023/07/06 05:14:53;;;;;;;5.55;2.47;;;15.10;99.90;;;;;;4179607;28;20037;-60
2023/07/06 05:16:54;;;;;;;5.80;2.60;;;15.10;99.90;;;;;;4183648;28;20425;-60
2023/07/06 05:18:55;;;;;;;4.45;1.90;;;15.20;99.90;;;;;;4181371;28;20426;-60
2023/07/06 05:20:57;;;;;;;6.65;2.13;;;15.20;99.90;;;;;;4182271;28;20037;-60
2023/07/06 05:22:58;;;;;;;4.10;2.40;;;15.20;99.90;;;;;;4172927;28;20033;-60
2023/07/06 05:24:58;;;;;;;5.75;2.35;;;15.30;99.90;;;;;;4181808;28;20600;-63
2023/07/06 05:26:59;;;;;;;6.95;2.40;;;15.30;99.90;;;;;;4186859;28;20029;-62
2023/07/06 05:28:59;;;;;;;6.55;2.38;;;15.30;99.90;;;;;;4182439;28;20036;-60
2023/07/06 05:31:02;;;;;;;10.02;2.08;;;15.30;99.90;;;;;;4181829;28;20029;-60
2023/07/06 05:33:03;;;;;;;5.13;2.20;;;15.40;99.90;;;;;;4178282;28;20040;-60
2023/07/06 05:35:04;;;;;;;5.30;2.50;;;15.40;99.90;;;;;;4177911;28;20041;-61
2023/07/06 05:37:04;;;;;;;5.85;2.30;;;15.40;99.90;;;;;;4175238;28;20118;-61
2023/07/06 05:39:06;;;;;;;8.00;2.22;;;15.50;99.90;;;;;;4169523;28;20110;-61
2023/07/06 05:41:07;;;;;;;6.50;2.35;;;15.50;99.90;;;;;;4180906;28;20480;-61
2023/07/06 05:43:09;;;;;;;6.75;2.60;;;15.40;99.90;;;;;;4182142;28;20075;-61
2023/07/06 05:45:10;;;;;;;7.25;2.75;;;15.50;99.90;;;;;;4176488;28;20061;-66
2023/07/06 05:47:12;;;;;;;8.52;3.15;;;15.50;99.90;;;;;;4186611;28;20035;-61
2023/07/06 05:49:12;;;;;;;6.40;2.38;;;15.60;99.90;;;;;;4178094;28;20587;-61
2023/07/06 05:51:13;;;;;;;10.40;3.08;;;15.60;99.90;;;;;;4184981;28;20040;-61
2023/07/06 05:53:13;;;;;;;7.47;3.05;;;15.70;99.90;;;;;;4188871;28;20032;-61
2023/07/06 05:55:15;;;;;;;6.55;2.55;;;15.70;99.90;;;;;;4176426;28;20037;-61
2023/07/06 05:57:19;;;;;;;7.30;2.58;;;15.90;99.90;;;;;;4183185;28;20033;-61
2023/07/06 05:59:24;;;;;;;6.50;2.20;;;16.10;99.90;;;;;;4175746;28;20036;-62
2023/07/06 06:01:25;;;;;;;5.38;2.15;;;16.40;99.90;;;;;;4174590;28;20024;-61
2023/07/06 06:03:26;;;;;;;5.18;2.40;;;16.70;99.90;;;;;;4170276;28;20025;-62
2023/07/06 06:05:27;;;;;;;6.30;1.95;;;17.00;99.90;;;;;;4179347;28;20374;-61
2023/07/06 06:07:31;;;;;;;7.75;2.20;;;17.30;99.90;;;;;;4178213;28;20102;-61
2023/07/06 06:09:32;;;;;;;8.23;2.17;;;17.60;99.90;;;;;;4177271;28;20063;-62
2023/07/06 06:11:33;;;;;;;6.37;2.47;;;17.80;99.90;;;;;;4179969;28;20036;-62
2023/07/06 06:13:34;;;;;;;8.35;2.42;;;17.90;99.90;;;;;;4179860;28;20549;-62
2023/07/06 06:15:35;;;;;;;6.50;2.58;;;18.10;99.90;;;;;;4183506;28;20030;-62
2023/07/06 06:17:40;;;;;;;4.07;1.85;;;18.30;99.90;;;;;;4166279;28;20029;-62
2023/07/06 06:19:42;;;;;;;7.18;2.40;;;18.60;99.90;;;;;;4158511;28;20049;-62
2023/07/06 06:21:42;;;;;;;2.63;1.45;;;18.90;99.90;;;;;;4181809;28;20068;-62
2023/07/06 06:23:43;;;;;;;8.13;1.98;;;19.10;99.90;;;;;;4180374;28;20067;-62
2023/07/06 06:25:45;;;;;;;7.07;2.28;;;19.40;99.90;;;;;;4179707;28;20105;-62
2023/07/06 06:27:46;;;;;;;3.63;1.65;;;19.60;99.90;;;;;;4178322;28;20044;-62
2023/07/06 06:29:47;;;;;;;4.25;1.88;;;19.90;99.90;;;;;;4154396;28;20041;-62
2023/07/06 06:31:47;;;;;;;6.20;2.30;;;20.00;99.90;;;;;;4168440;28;20034;-62
2023/07/06 06:33:48;;;;;;;6.55;2.33;;;20.40;99.90;;;;;;4181070;28;20054;-62
2023/07/06 06:35:50;;;;;;;9.38;2.47;;;20.40;99.90;;;;;;4165474;28;20403;-62
2023/07/06 06:37:51;;;;;;;4.63;1.90;;;20.40;99.90;;;;;;4157029;28;20472;-63
2023/07/06 06:39:51;;;;;;;4.45;2.00;;;20.50;99.90;;;;;;4169353;28;20033;-63
2023/07/06 06:41:52;;;;;;;8.52;2.88;;;20.30;99.90;;;;;;4159599;28;20087;-63
2023/07/06 06:43:53;;;;;;;6.97;2.50;;;20.10;99.90;;;;;;4176855;28;20028;-62
2023/07/06 06:45:54;;;;;;;6.25;2.80;;;19.90;99.90;;;;;;4173359;28;20032;-62
2023/07/06 06:47:54;;;;;;;8.07;2.60;;;19.80;99.90;;;;;;4140324;28;20389;-63
2023/07/06 06:49:55;;;;;;;7.65;2.53;;;19.70;99.90;;;;;;4157773;28;20021;-62
2023/07/06 06:51:55;;;;;;;9.20;2.90;;;19.60;99.90;;;;;;4158994;28;20033;-62
2023/07/06 06:53:56;;;;;;;8.55;3.05;;;19.40;99.90;;;;;;4158204;28;20038;-62
2023/07/06 06:55:57;;;;;;;12.07;2.30;;;19.20;99.90;;;;;;4175503;28;20040;-62
2023/07/06 06:57:58;;;;;;;6.63;2.47;;;19.20;99.90;;;;;;4174343;28;20569;-62
2023/07/06 06:59:59;;;;;;;9.10;2.58;;;19.20;99.90;;;;;;4173535;28;20040;-62
2023/07/06 07:02:01;;;;;;;15.45;4.00;;;19.10;99.90;;;;;;4154408;28;20416;-62
2023/07/06 07:04:02;;;;;;;12.85;3.33;;;19.00;99.90;;;;;;4158938;28;20047;-62
2023/07/06 07:06:13;;;;;;;10.63;2.70;;;18.90;99.90;;;;;;4170065;28;20037;-63
2023/07/06 07:08:14;;;;;;;11.13;3.83;;;18.90;99.90;;;;;;4170373;28;20120;-62
2023/07/06 07:10:14;;;;;;;14.65;4.50;;;19.00;99.90;;;;;;4170188;28;20682;-62
2023/07/06 07:12:15;;;;;;;11.38;3.67;;;19.00;99.90;;;;;;4173107;28;20037;-62
2023/07/06 07:14:17;;;;;;;12.75;4.53;;;19.00;99.90;;;;;;4165690;28;20067;-62
2023/07/06 07:16:19;;;;;;;12.63;4.80;;;19.00;99.90;;;;;;4133692;28;20049;-62
2023/07/06 07:18:21;;;;;;;8.95;3.67;;;19.00;99.90;;;;;;4159264;28;20033;-62
2023/07/06 07:20:21;;;;;;;10.10;3.90;;;19.00;99.90;;;;;;4169077;28;20584;-63
2023/07/06 07:22:22;;;;;;;13.85;4.03;;;19.00;99.90;;;;;;4170539;28;20048;-62
2023/07/06 07:24:22;;;;;;;10.88;4.28;;;19.10;99.90;;;;;;4165112;28;20025;-63
2023/07/06 07:26:24;;;;;;;8.55;3.53;;;19.20;99.90;;;;;;4169614;28;20052;-62
2023/07/06 07:28:24;;;;;;;8.93;3.63;;;19.20;99.90;;;;;;4164874;28;20044;-62
2023/07/06 07:30:26;;;;;;;9.73;3.45;;;19.20;99.90;;;;;;4172309;28;20496;-62
2023/07/06 07:32:29;;;;;;;10.07;3.33;;;19.20;99.90;;;;;;4156207;28;21244;-63
2023/07/06 07:34:30;;;;;;;9.07;3.33;;;19.30;99.90;;;;;;4171410;28;20047;-62
2023/07/06 07:36:31;;;;;;;6.05;2.78;;;19.30;99.90;;;;;;4156136;28;20124;-61
2023/07/06 07:38:31;;;;;;;13.70;4.60;;;19.40;99.90;;;;;;4146257;28;20069;-62
2023/07/06 07:40:32;;;;;;;13.90;3.97;;;19.50;99.90;;;;;;4172648;28;20044;-63
2023/07/06 07:42:32;;;;;;;10.68;3.58;;;19.50;99.90;;;;;;4176632;28;20040;-62
2023/07/06 07:44:33;;;;;;;9.90;3.30;;;19.60;99.90;;;;;;4175426;28;20439;-61
2023/07/06 07:46:34;;;;;;;8.65;3.00;;;19.60;99.90;;;;;;4175263;28;20037;-62
2023/07/06 07:48:38;;;;;;;11.45;4.30;;;19.70;99.90;;;;;;4174404;28;20041;-62
2023/07/06 07:50:39;;;;;;;8.20;3.10;;;19.80;99.90;;;;;;4175367;28;20029;-62
2023/07/06 07:52:39;;;;;;;7.78;2.95;;;19.80;99.90;;;;;;4175436;28;20052;-62
2023/07/06 07:54:40;;;;;;;5.93;2.67;;;19.90;99.90;;;;;;4176519;28;20404;-62
2023/07/06 07:56:42;;;;;;;9.10;3.08;;;20.00;99.90;;;;;;4175041;28;20515;-62
2023/07/06 07:58:48;;;;;;;8.75;3.05;;;20.10;99.90;;;;;;4166783;28;20036;-62
2023/07/06 08:00:50;;;;;;;10.35;3.33;;;20.20;99.90;;;;;;4155382;28;20128;-62
2023/07/06 08:02:53;;;;;;;6.40;2.95;;;20.30;99.90;;;;;;4160505;28;20041;-62
2023/07/06 08:04:53;;;;;;;8.65;2.83;;;20.30;99.90;;;;;;4158497;28;20115;-62
2023/07/06 08:06:54;;;;;;;8.30;2.90;;;20.40;99.90;;;;;;4154111;28;20029;-62
2023/07/06 08:08:55;;;;;;;5.47;2.70;;;20.50;99.90;;;;;;4154181;28;20117;-62
2023/07/06 08:11:01;;;;;;;14.57;3.88;;;20.50;99.90;;;;;;4156734;28;20038;-62
2023/07/06 08:13:07;;;;;;;11.40;3.03;;;20.60;99.90;;;;;;4158424;28;20064;-62
2023/07/06 08:15:08;;;;;;;16.42;4.00;;;20.70;99.90;;;;;;4157988;28;20034;-62
2023/07/06 08:17:10;;;;;;;7.90;3.10;;;20.70;99.90;;;;;;4160000;28;20505;-62
2023/07/06 08:19:12;;;;;;;8.93;3.58;;;20.70;99.90;;;;;;4158114;28;20037;-62
2023/07/06 08:21:13;;;;;;;13.43;3.10;;;20.70;99.90;;;;;;4153408;28;20053;-62
2023/07/06 08:23:16;;;;;;;6.10;2.30;;;20.70;99.90;;;;;;4158364;28;20049;-62
2023/07/06 08:25:17;;;;;;;6.22;3.00;;;20.80;99.90;;;;;;4161183;28;20156;-62
2023/07/06 08:27:17;;;;;;;8.02;2.88;;;20.80;99.90;;;;;;4162890;28;20033;-62
2023/07/06 08:29:18;;;;;;;8.43;2.65;;;20.80;99.90;;;;;;4159412;28;20049;-62
2023/07/06 08:31:20;;;;;;;8.18;2.63;;;20.80;99.90;;;;;;4159091;28;20396;-62
2023/07/06 08:33:20;;;;;;;8.18;2.78;;;20.90;99.90;;;;;;4165049;28;20048;-62
2023/07/06 08:35:21;;;;;;;11.10;3.15;;;20.90;99.90;;;;;;4159341;28;20125;-62
2023/07/06 08:37:22;;;;;;;8.18;2.80;;;20.90;99.90;;;;;;4179039;28;20486;-62
2023/07/06 08:39:22;;;;;;;4.85;2.38;;;20.90;99.90;;;;;;4172365;28;20373;-66
2023/07/06 08:41:31;;;;;;;6.72;2.53;;;21.10;99.90;;;;;;4163413;28;20037;-63
2023/07/06 08:43:32;;;;;;;5.88;2.33;;;21.20;99.90;;;;;;4158283;28;21007;-62
2023/07/06 08:45:58;;;;;;;7.20;2.50;;;21.30;99.90;;;;;;4157242;28;20115;-62
2023/07/06 08:48:00;;;;;;;12.80;3.50;;;21.40;99.90;;;;;;4145437;28;20487;-62
2023/07/06 08:50:03;;;;;;;5.88;2.70;;;21.50;99.90;;;;;;4170134;28;20026;-62
2023/07/06 08:52:05;;;;;;;8.20;3.25;;;21.50;99.90;;;;;;4175646;28;20056;-63
2023/07/06 08:54:24;;;;;;;6.32;2.45;;;21.60;99.90;;;;;;4178336;28;20488;-62
2023/07/06 08:56:27;;;;;;;6.03;2.33;;;21.50;99.90;;;;;;4176082;28;20037;-62
2023/07/06 08:58:33;;;;;;;7.88;2.80;;;21.60;99.90;;;;;;4176767;28;20066;-63
2023/07/06 09:00:34;;;;;;;9.10;2.53;;;21.60;99.90;;;;;;4164021;28;20470;-62
2023/07/06 09:02:36;;;;;;;6.85;2.83;;;21.60;99.90;;;;;;4162370;28;20053;-64
2023/07/06 09:04:37;;;;;;;5.68;2.28;;;21.60;99.90;;;;;;4163234;28;20038;-62
2023/07/06 09:06:44;;;;;;;5.43;2.30;;;21.70;99.90;;;;;;4161246;28;20068;-63
2023/07/06 09:08:47;;;;;;;4.68;2.38;;;21.70;99.90;;;;;;4161085;28;20029;-62
2023/07/06 09:10:49;;;;;;;6.55;2.63;;;21.70;99.90;;;;;;4161041;28;20450;-62
2023/07/06 09:12:53;;;;;;;6.50;2.35;;;21.70;99.90;;;;;;4162313;28;20507;-62
2023/07/06 09:14:55;;;;;;;3.38;1.77;;;21.80;99.90;;;;;;4160119;28;20489;-63
2023/07/06 09:16:57;;;;;;;7.50;2.38;;;22.00;99.90;;;;;;4161873;28;20064;-62
2023/07/06 09:18:57;;;;;;;3.33;1.90;;;21.90;99.90;;;;;;4161746;28;20388;-62
2023/07/06 09:21:00;;;;;;;7.35;2.30;;;22.00;99.90;;;;;;4159306;28;20396;-63
2023/07/06 09:23:01;;;;;;;;;;;22.00;99.90;;;;;;4162173;28;20120;-63
2023/07/06 09:25:05;;;;;;;4.25;1.60;;;22.10;99.90;;;;;;4162597;28;20296;-65
2023/07/06 09:27:17;;;;;;;7.85;2.20;;;22.20;99.90;;;;;;4159692;28;20074;-63
2023/07/06 09:29:39;;;;;;;5.15;2.50;;;22.20;99.90;;;;;;4151217;28;21208;-63
2023/07/06 09:31:40;;;;;;;6.03;2.38;;;22.20;99.90;;;;;;4169599;28;20049;-63
2023/07/06 09:33:48;;;;;;;5.03;2.05;;;22.20;99.90;;;;;;4178439;28;20610;-62
2023/07/06 09:35:52;;;;;;;5.60;1.95;;;22.20;99.90;;;;;;4176899;28;20056;-63
2023/07/06 09:37:53;;;;;;;5.03;2.35;;;22.20;99.90;;;;;;4174742;28;20123;-66
2023/07/06 09:40:04;;;;;;;5.45;2.17;;;22.20;99.90;;;;;;4160408;28;20049;-63
2023/07/06 09:42:08;;;;;;;6.00;2.22;;;22.20;99.90;;;;;;4160920;28;20030;-65
2023/07/06 09:44:15;;;;;;;4.53;2.45;;;22.20;99.90;;;;;;4160114;28;20165;-62
2023/07/06 09:46:15;;;;;;;5.93;1.83;;;22.30;99.90;;;;;;4159836;28;20033;-63
2023/07/06 09:48:29;;;;;;;3.85;1.60;;;22.30;99.90;;;;;;4160089;28;20058;-62
2023/07/06 09:50:35;;;;;;;5.05;2.20;;;22.30;99.90;;;;;;4158666;28;20072;-62
2023/07/06 09:52:37;;;;;;;4.45;2.20;;;22.40;99.90;;;;;;4159303;28;20030;-64
2023/07/06 09:54:57;;;;;;;5.75;2.28;;;22.40;99.90;;;;;;4157408;28;20633;-63
2023/07/06 09:56:58;;;;;;;4.80;2.10;;;22.50;99.90;;;;;;4160463;28;20117;-63
2023/07/06 09:59:00;;;;;;;2.97;1.80;;;22.50;99.90;;;;;;4158830;28;20154;-63
2023/07/06 10:01:13;;;;;;;3.55;1.65;;;22.50;99.90;;;;;;4160189;28;20033;-63
2023/07/06 10:03:23;;;;;;;;;;;22.60;99.90;;;;;;4157826;28;20523;-63
2023/07/06 10:05:29;;;;;;;3.97;1.80;;;22.70;99.90;;;;;;4159388;28;20083;-63
2023/07/06 10:07:55;;;;;;;2.50;1.50;;;22.70;99.90;;;;;;4161046;28;20503;-62
2023/07/06 10:10:14;;;;;;;4.03;1.70;;;22.70;99.90;;;;;;4159288;28;20108;-63
2023/07/06 10:12:31;;;;;;;6.75;2.35;;;22.70;99.90;;;;;;4160750;28;20041;-63
2023/07/06 10:14:38;;;;;;;5.68;1.83;;;22.70;99.90;;;;;;4158872;28;20030;-63
2023/07/06 10:17:13;;;;;;;6.93;1.90;;;22.70;99.90;;;;;;4158661;28;20026;-63
2023/07/06 10:19:38;;;;;;;3.47;1.60;;;22.70;99.90;;;;;;4159186;28;20125;-63
2023/07/06 10:21:54;;;;;;;3.85;1.70;;;22.70;99.90;;;;;;4158320;28;20037;-62
2023/07/06 10:24:15;;;;;;;8.52;2.38;;;22.60;99.90;;;;;;4159131;28;20026;-64
2023/07/06 10:26:28;;;;;;;3.22;1.52;;;22.60;99.90;;;;;;4157637;28;20405;-63
2023/07/06 10:28:38;;;;;;;6.53;2.00;;;22.70;99.90;;;;;;4158309;28;20108;-62
2023/07/06 10:30:45;;;;;;;4.43;1.77;;;22.70;99.90;;;;;;4157021;28;20036;-63
2023/07/06 10:32:48;;;;;;;3.80;2.10;;;22.80;99.90;;;;;;4156496;28;20053;-62
2023/07/06 10:34:58;;;;;;;3.47;1.85;;;22.80;99.90;;;;;;4157767;28;20732;-62
2023/07/06 10:37:04;;;;;;;4.45;1.80;;;22.80;99.90;;;;;;4176794;28;20060;-63
2023/07/06 10:39:27;;;;;;;5.32;2.10;;;22.90;99.90;;;;;;4174821;28;20029;-62
2023/07/06 10:41:32;;;;;;;5.13;1.98;;;22.90;99.90;;;;;;4145006;28;20400;-63
2023/07/06 10:43:32;;;;;;;4.57;1.60;;;22.90;99.90;;;;;;4161382;28;20126;-62